sensor_id;sensor_type;location;lat;lon;timestamp;temperature;humidity
21312;DHT22;18076;52.154;10.570;2023-03-21T00:01:35;8.60;99.90
21312;DHT22;18076;52.154;10.570;2023-03-21T00:04:00;8.50;99.90
21312;DHT22;18076;52.154;10.570;2023-03-21T00:06:26;8.50;99.90
21312;DHT22;18076;52.154;10.570;2023-03-21T00:08:51;8.50;99.90
21312;DHT22;18076;52.154;10.570;2023-03-21T00:11:17;8.60;99.90
21312;DHT22;18076;52.154;10.570;2023-03-21T00:13:43;8.50;99.90
21312;DHT22;18076;52.154;10.570;2023-03-21T00:16:10;8.50;99.90
21312;DHT22;18076;52.154;10.570;2023-03-21T00:18:40;8.60;99.90
21312;DHT22;18076;52.154;10.570;2023-03-21T00:21:06;8.50;99.90
21312;DHT22;18076;52.154;10.570;2023-03-21T00:23:33;8.50;99.90
21312;DHT22;18076;52.154;10.570;2023-03-21T00:25:59;8.50;99.90
21312;DHT22;18076;52.154;10.570;2023-03-21T00:28:25;8.50;99.90
21312;DHT22;18076;52.154;10.570;2023-03-21T00:30:55;8.60;99.90
21312;DHT22;18076;52.154;10.570;2023-03-21T00:33:20;8.50;99.90
21312;DHT22;18076;52.154;10.570;2023-03-21T00:35:48;8.50;99.90
21312;DHT22;18076;52.154;10.570;2023-03-21T00:38:16;8.40;99.90
21312;DHT22;18076;52.154;10.570;2023-03-21T00:40:42;8.40;99.90
21312;DHT22;18076;52.154;10.570;2023-03-21T00:43:08;8.40;99.90
21312;DHT22;18076;52.154;10.570;2023-03-21T00:45:33;8.40;99.90
21312;DHT22;18076;52.154;10.570;2023-03-21T00:47:59;8.40;99.90
21312;DHT22;18076;52.154;10.570;2023-03-21T00:50:24;8.40;99.90
21312;DHT22;18076;52.154;10.570;2023-03-21T00:52:50;8.40;99.90
21312;DHT22;18076;52.154;10.570;2023-03-21T00:55:16;8.40;99.90
21312;DHT22;18076;52.154;10.570;2023-03-21T00:57:42;8.30;99.90
21312;DHT22;18076;52.154;10.570;2023-03-21T01:00:10;8.30;99.90
21312;DHT22;18076;52.154;10.570;2023-03-21T01:02:37;8.20;99.90
21312;DHT22;18076;52.154;10.570;2023-03-21T01:05:03;8.20;99.90
21312;DHT22;18076;52.154;10.570;2023-03-21T01:07:29;8.20;99.90
21312;DHT22;18076;52.154;10.570;2023-03-21T01:09:54;8.10;99.90
21312;DHT22;18076;52.154;10.570;2023-03-21T01:12:20;8.10;99.90
21312;DHT22;18076;52.154;10.570;2023-03-21T01:14:45;8.00;99.90
21312;DHT22;18076;52.154;10.570;2023-03-21T01:17:14;8.00;99.90
21312;DHT22;18076;52.154;10.570;2023-03-21T01:19:40;8.10;99.90
21312;DHT22;18076;52.154;10.570;2023-03-21T01:22:05;8.10;99.90
21312;DHT22;18076;52.154;10.570;2023-03-21T01:24:31;8.10;99.90
21312;DHT22;18076;52.154;10.570;2023-03-21T01:26:56;8.00;99.90
21312;DHT22;18076;52.154;10.570;2023-03-21T01:29:22;8.10;99.90
21312;DHT22;18076;52.154;10.570;2023-03-21T01:31:48;8.10;99.90
21312;DHT22;18076;52.154;10.570;2023-03-21T01:34:13;8.10;99.90
21312;DHT22;18076;52.154;10.570;2023-03-21T01:36:39;8.10;99.90
21312;DHT22;18076;52.154;10.570;2023-03-21T01:39:04;8.10;99.90
21312;DHT22;18076;52.154;10.570;2023-03-21T01:41:37;8.00;99.90
21312;DHT22;18076;52.154;10.570;2023-03-21T01:44:02;8.00;99.90
21312;DHT22;18076;52.154;10.570;2023-03-21T01:46:48;8.00;99.90
21312;DHT22;18076;52.154;10.570;2023-03-21T01:49:19;8.00;99.90
21312;DHT22;18076;52.154;10.570;2023-03-21T01:51:53;8.00;99.90
21312;DHT22;18076;52.154;10.570;2023-03-21T01:54:22;8.00;99.90
21312;DHT22;18076;52.154;10.570;2023-03-21T01:56:49;7.90;99.90
21312;DHT22;18076;52.154;10.570;2023-03-21T01:59:19;8.00;99.90
21312;DHT22;18076;52.154;10.570;2023-03-21T02:01:46;8.00;99.90
21312;DHT22;18076;52.154;10.570;2023-03-21T02:04:12;8.00;99.90
21312;DHT22;18076;52.154;10.570;2023-03-21T02:06:57;8.00;99.90
21312;DHT22;18076;52.154;10.570;2023-03-21T02:09:24;8.00;99.90
21312;DHT22;18076;52.154;10.570;2023-03-21T02:11:50;8.00;99.90
21312;DHT22;18076;52.154;10.570;2023-03-21T02:14:17;8.10;99.90
21312;DHT22;18076;52.154;10.570;2023-03-21T02:27:21;8.20;99.90
21312;DHT22;18076;52.154;10.570;2023-03-21T02:32:39;8.10;99.90
21312;DHT22;18076;52.154;10.570;2023-03-21T02:37:37;8.10;99.90
21312;DHT22;18076;52.154;10.570;2023-03-21T02:40:08;8.10;99.90
21312;DHT22;18076;52.154;10.570;2023-03-21T02:47:46;8.10;99.90
21312;DHT22;18076;52.154;10.570;2023-03-21T02:52:39;8.10;99.90
21312;DHT22;18076;52.154;10.570;2023-03-21T02:55:07;8.20;99.90
21312;DHT22;18076;52.154;10.570;2023-03-21T02:57:38;8.20;99.90
21312;DHT22;18076;52.154;10.570;2023-03-21T03:00:05;8.20;99.90
21312;DHT22;18076;52.154;10.570;2023-03-21T03:02:35;8.20;99.90
21312;DHT22;18076;52.154;10.570;2023-03-21T03:05:00;8.20;99.90
21312;DHT22;18076;52.154;10.570;2023-03-21T03:12:52;8.20;99.90
21312;DHT22;18076;52.154;10.570;2023-03-21T03:15:28;8.20;99.90
21312;DHT22;18076;52.154;10.570;2023-03-21T03:21:43;8.30;99.90
21312;DHT22;18076;52.154;10.570;2023-03-21T03:23:47;8.30;99.90
21312;DHT22;18076;52.154;10.570;2023-03-21T03:26:32;8.30;99.90
21312;DHT22;18076;52.154;10.570;2023-03-21T03:28:59;8.40;99.90
21312;DHT22;18076;52.154;10.570;2023-03-21T03:31:28;8.40;99.90
21312;DHT22;18076;52.154;10.570;2023-03-21T03:33:56;8.40;99.90
21312;DHT22;18076;52.154;10.570;2023-03-21T03:36:26;8.40;99.90
21312;DHT22;18076;52.154;10.570;2023-03-21T03:38:53;8.40;99.90
21312;DHT22;18076;52.154;10.570;2023-03-21T03:41:20;8.40;99.90
21312;DHT22;18076;52.154;10.570;2023-03-21T03:43:50;8.40;99.90
21312;DHT22;18076;52.154;10.570;2023-03-21T03:46:18;8.50;99.90
21312;DHT22;18076;52.154;10.570;2023-03-21T03:48:48;8.50;99.90
21312;DHT22;18076;52.154;10.570;2023-03-21T03:51:22;8.50;99.90
21312;DHT22;18076;52.154;10.570;2023-03-21T03:53:59;8.50;99.90
21312;DHT22;18076;52.154;10.570;2023-03-21T03:56:26;8.50;99.90
21312;DHT22;18076;52.154;10.570;2023-03-21T03:58:53;8.50;99.90
21312;DHT22;18076;52.154;10.570;2023-03-21T04:01:18;8.50;99.90
21312;DHT22;18076;52.154;10.570;2023-03-21T04:03:45;8.50;99.90
21312;DHT22;18076;52.154;10.570;2023-03-21T04:06:11;8.50;99.90
21312;DHT22;18076;52.154;10.570;2023-03-21T04:08:37;8.50;99.90
21312;DHT22;18076;52.154;10.570;2023-03-21T04:11:03;8.50;99.90
21312;DHT22;18076;52.154;10.570;2023-03-21T04:13:29;8.50;99.90
21312;DHT22;18076;52.154;10.570;2023-03-21T04:15:55;8.50;99.90
21312;DHT22;18076;52.154;10.570;2023-03-21T04:18:24;8.50;99.90
21312;DHT22;18076;52.154;10.570;2023-03-21T04:20:49;8.50;99.90
21312;DHT22;18076;52.154;10.570;2023-03-21T04:23:16;8.50;99.90
21312;DHT22;18076;52.154;10.570;2023-03-21T04:25:43;8.50;99.90
21312;DHT22;18076;52.154;10.570;2023-03-21T04:28:09;8.50;99.90
21312;DHT22;18076;52.154;10.570;2023-03-21T04:30:35;8.50;99.90
21312;DHT22;18076;52.154;10.570;2023-03-21T04:33:00;8.40;99.90
21312;DHT22;18076;52.154;10.570;2023-03-21T04:35:26;8.40;99.90
21312;DHT22;18076;52.154;10.570;2023-03-21T04:37:52;8.40;99.90
21312;DHT22;18076;52.154;10.570;2023-03-21T04:40:18;8.40;99.90
21312;DHT22;18076;52.154;10.570;2023-03-21T04:42:44;8.40;99.90
21312;DHT22;18076;52.154;10.570;2023-03-21T04:45:10;8.50;99.90
21312;DHT22;18076;52.154;10.570;2023-03-21T04:47:35;8.50;99.90
21312;DHT22;18076;52.154;10.570;2023-03-21T04:50:01;8.50;99.90
21312;DHT22;18076;52.154;10.570;2023-03-21T04:52:27;8.50;99.90
21312;DHT22;18076;52.154;10.570;2023-03-21T04:54:53;8.50;99.90
21312;DHT22;18076;52.154;10.570;2023-03-21T04:57:18;8.50;99.90
21312;DHT22;18076;52.154;10.570;2023-03-21T04:59:44;8.40;99.90
21312;DHT22;18076;52.154;10.570;2023-03-21T05:02:10;8.50;99.90
21312;DHT22;18076;52.154;10.570;2023-03-21T05:04:36;8.40;99.90
21312;DHT22;18076;52.154;10.570;2023-03-21T05:07:02;8.40;99.90
21312;DHT22;18076;52.154;10.570;2023-03-21T05:09:27;8.40;99.90
21312;DHT22;18076;52.154;10.570;2023-03-21T05:11:53;8.30;99.90
21312;DHT22;18076;52.154;10.570;2023-03-21T05:14:20;8.30;99.90
21312;DHT22;18076;52.154;10.570;2023-03-21T05:16:46;8.30;99.90
21312;DHT22;18076;52.154;10.570;2023-03-21T05:19:22;8.30;99.90
21312;DHT22;18076;52.154;10.570;2023-03-21T05:21:48;8.30;99.90
21312;DHT22;18076;52.154;10.570;2023-03-21T05:24:18;8.30;99.90
21312;DHT22;18076;52.154;10.570;2023-03-21T05:26:44;8.30;99.90
21312;DHT22;18076;52.154;10.570;2023-03-21T05:29:15;8.40;99.90
21312;DHT22;18076;52.154;10.570;2023-03-21T05:31:41;8.40;99.90
21312;DHT22;18076;52.154;10.570;2023-03-21T05:34:06;8.40;99.90
21312;DHT22;18076;52.154;10.570;2023-03-21T05:36:32;8.50;99.90
21312;DHT22;18076;52.154;10.570;2023-03-21T05:39:00;8.50;99.90
21312;DHT22;18076;52.154;10.570;2023-03-21T05:41:29;8.50;99.90
21312;DHT22;18076;52.154;10.570;2023-03-21T05:43:57;8.50;99.90
21312;DHT22;18076;52.154;10.570;2023-03-21T05:46:23;8.60;99.90
21312;DHT22;18076;52.154;10.570;2023-03-21T05:48:49;8.50;99.90
21312;DHT22;18076;52.154;10.570;2023-03-21T05:51:15;8.50;99.90
21312;DHT22;18076;52.154;10.570;2023-03-21T05:53:40;8.50;99.90
21312;DHT22;18076;52.154;10.570;2023-03-21T05:56:06;8.50;99.90
21312;DHT22;18076;52.154;10.570;2023-03-21T05:58:32;8.50;99.90
21312;DHT22;18076;52.154;10.570;2023-03-21T06:00:58;8.50;99.90
21312;DHT22;18076;52.154;10.570;2023-03-21T06:03:23;8.60;99.90
21312;DHT22;18076;52.154;10.570;2023-03-21T06:05:49;8.60;99.90
21312;DHT22;18076;52.154;10.570;2023-03-21T06:08:14;8.60;99.90
21312;DHT22;18076;52.154;10.570;2023-03-21T06:10:40;8.50;99.90
21312;DHT22;18076;52.154;10.570;2023-03-21T06:13:05;8.60;99.90
21312;DHT22;18076;52.154;10.570;2023-03-21T06:15:31;8.60;99.90
21312;DHT22;18076;52.154;10.570;2023-03-21T06:17:56;8.60;99.90
21312;DHT22;18076;52.154;10.570;2023-03-21T06:20:22;8.70;99.90
21312;DHT22;18076;52.154;10.570;2023-03-21T06:22:47;8.80;99.90
21312;DHT22;18076;52.154;10.570;2023-03-21T06:25:13;8.80;99.90
21312;DHT22;18076;52.154;10.570;2023-03-21T06:27:38;8.80;99.90
21312;DHT22;18076;52.154;10.570;2023-03-21T06:30:04;8.70;99.90
21312;DHT22;18076;52.154;10.570;2023-03-21T06:32:30;8.80;99.90
21312;DHT22;18076;52.154;10.570;2023-03-21T06:34:56;8.80;99.90
21312;DHT22;18076;52.154;10.570;2023-03-21T06:37:22;8.80;99.90
21312;DHT22;18076;52.154;10.570;2023-03-21T06:39:48;8.90;99.90
21312;DHT22;18076;52.154;10.570;2023-03-21T06:42:13;9.00;99.90
21312;DHT22;18076;52.154;10.570;2023-03-21T06:44:39;9.00;99.90
21312;DHT22;18076;52.154;10.570;2023-03-21T06:47:05;9.00;99.90
21312;DHT22;18076;52.154;10.570;2023-03-21T06:49:30;9.10;99.90
21312;DHT22;18076;52.154;10.570;2023-03-21T06:51:56;9.20;99.90
21312;DHT22;18076;52.154;10.570;2023-03-21T06:54:21;9.10;99.90
21312;DHT22;18076;52.154;10.570;2023-03-21T06:56:47;9.10;99.90
21312;DHT22;18076;52.154;10.570;2023-03-21T06:59:12;9.20;99.90
21312;DHT22;18076;52.154;10.570;2023-03-21T07:01:38;9.30;99.90
21312;DHT22;18076;52.154;10.570;2023-03-21T07:04:04;9.30;99.90
21312;DHT22;18076;52.154;10.570;2023-03-21T07:06:30;9.30;99.90
21312;DHT22;18076;52.154;10.570;2023-03-21T07:08:56;9.40;99.90
21312;DHT22;18076;52.154;10.570;2023-03-21T07:11:22;9.40;99.90
21312;DHT22;18076;52.154;10.570;2023-03-21T07:13:48;9.50;99.90
21312;DHT22;18076;52.154;10.570;2023-03-21T07:16:14;9.60;99.90
21312;DHT22;18076;52.154;10.570;2023-03-21T07:18:40;9.70;99.90
21312;DHT22;18076;52.154;10.570;2023-03-21T07:21:06;9.60;99.90
21312;DHT22;18076;52.154;10.570;2023-03-21T07:23:32;9.70;99.90
21312;DHT22;18076;52.154;10.570;2023-03-21T07:25:57;9.70;99.90
21312;DHT22;18076;52.154;10.570;2023-03-21T07:28:23;9.90;99.90
21312;DHT22;18076;52.154;10.570;2023-03-21T07:30:53;9.90;99.90
21312;DHT22;18076;52.154;10.570;2023-03-21T07:33:19;10.00;99.90
21312;DHT22;18076;52.154;10.570;2023-03-21T07:35:45;10.00;99.90
21312;DHT22;18076;52.154;10.570;2023-03-21T07:38:10;10.00;99.90
21312;DHT22;18076;52.154;10.570;2023-03-21T07:40:38;10.10;99.90
21312;DHT22;18076;52.154;10.570;2023-03-21T07:43:03;10.10;99.90
21312;DHT22;18076;52.154;10.570;2023-03-21T07:45:29;10.10;99.90
21312;DHT22;18076;52.154;10.570;2023-03-21T07:47:54;10.10;99.90
21312;DHT22;18076;52.154;10.570;2023-03-21T07:50:20;10.20;99.90
21312;DHT22;18076;52.154;10.570;2023-03-21T07:52:46;10.20;99.90
21312;DHT22;18076;52.154;10.570;2023-03-21T07:55:11;10.20;99.90
21312;DHT22;18076;52.154;10.570;2023-03-21T07:57:37;10.20;99.90
21312;DHT22;18076;52.154;10.570;2023-03-21T08:00:04;10.20;99.90
21312;DHT22;18076;52.154;10.570;2023-03-21T08:02:30;10.20;99.90
21312;DHT22;18076;52.154;10.570;2023-03-21T08:04:56;10.20;99.90
21312;DHT22;18076;52.154;10.570;2023-03-21T08:07:21;10.20;99.90
21312;DHT22;18076;52.154;10.570;2023-03-21T08:09:47;10.20;99.90
21312;DHT22;18076;52.154;10.570;2023-03-21T08:12:12;10.20;99.90
21312;DHT22;18076;52.154;10.570;2023-03-21T08:14:38;10.30;99.90
21312;DHT22;18076;52.154;10.570;2023-03-21T08:17:04;10.30;99.90
21312;DHT22;18076;52.154;10.570;2023-03-21T08:19:30;10.40;99.90
21312;DHT22;18076;52.154;10.570;2023-03-21T08:21:56;10.40;99.90
21312;DHT22;18076;52.154;10.570;2023-03-21T08:24:25;10.50;99.90
21312;DHT22;18076;52.154;10.570;2023-03-21T08:26:51;10.50;99.90
21312;DHT22;18076;52.154;10.570;2023-03-21T08:29:17;10.40;99.90
21312;DHT22;18076;52.154;10.570;2023-03-21T08:31:42;10.50;99.90
21312;DHT22;18076;52.154;10.570;2023-03-21T08:34:08;10.50;99.90
21312;DHT22;18076;52.154;10.570;2023-03-21T08:36:36;10.50;99.90
21312;DHT22;18076;52.154;10.570;2023-03-21T08:39:02;10.40;99.90
21312;DHT22;18076;52.154;10.570;2023-03-21T08:41:34;10.40;99.90
21312;DHT22;18076;52.154;10.570;2023-03-21T08:44:00;10.30;99.90
21312;DHT22;18076;52.154;10.570;2023-03-21T08:46:26;10.40;99.90
21312;DHT22;18076;52.154;10.570;2023-03-21T08:48:52;10.50;99.90
21312;DHT22;18076;52.154;10.570;2023-03-21T08:51:17;10.50;99.90
21312;DHT22;18076;52.154;10.570;2023-03-21T08:53:43;10.60;99.90
21312;DHT22;18076;52.154;10.570;2023-03-21T08:56:09;10.70;99.90
21312;DHT22;18076;52.154;10.570;2023-03-21T08:58:35;10.90;99.90
21312;DHT22;18076;52.154;10.570;2023-03-21T09:01:01;10.90;99.90
21312;DHT22;18076;52.154;10.570;2023-03-21T09:03:26;10.90;99.90
21312;DHT22;18076;52.154;10.570;2023-03-21T09:05:52;10.90;99.90
21312;DHT22;18076;52.154;10.570;2023-03-21T09:08:18;10.90;99.90
21312;DHT22;18076;52.154;10.570;2023-03-21T09:10:50;10.90;99.90
21312;DHT22;18076;52.154;10.570;2023-03-21T09:13:16;11.00;99.90
21312;DHT22;18076;52.154;10.570;2023-03-21T09:15:42;10.90;99.90
21312;DHT22;18076;52.154;10.570;2023-03-21T09:18:07;10.90;99.90
21312;DHT22;18076;52.154;10.570;2023-03-21T09:20:41;10.90;99.90
21312;DHT22;18076;52.154;10.570;2023-03-21T09:23:12;11.00;99.90
21312;DHT22;18076;52.154;10.570;2023-03-21T09:25:38;11.00;99.90
21312;DHT22;18076;52.154;10.570;2023-03-21T09:28:04;11.10;99.90
21312;DHT22;18076;52.154;10.570;2023-03-21T09:30:30;11.20;99.90
21312;DHT22;18076;52.154;10.570;2023-03-21T09:33:00;11.20;99.90
21312;DHT22;18076;52.154;10.570;2023-03-21T09:35:28;11.30;99.90
21312;DHT22;18076;52.154;10.570;2023-03-21T09:37:54;11.20;99.90
21312;DHT22;18076;52.154;10.570;2023-03-21T09:40:30;11.20;99.90
21312;DHT22;18076;52.154;10.570;2023-03-21T09:45:34;11.40;99.90
21312;DHT22;18076;52.154;10.570;2023-03-21T09:48:03;11.40;99.90
21312;DHT22;18076;52.154;10.570;2023-03-21T09:50:35;11.40;99.90
21312;DHT22;18076;52.154;10.570;2023-03-21T09:53:10;11.40;99.90
21312;DHT22;18076;52.154;10.570;2023-03-21T09:55:37;11.40;99.90
21312;DHT22;18076;52.154;10.570;2023-03-21T10:00:37;11.50;99.90
21312;DHT22;18076;52.154;10.570;2023-03-21T10:03:05;11.40;99.90
21312;DHT22;18076;52.154;10.570;2023-03-21T10:05:32;11.40;99.90
21312;DHT22;18076;52.154;10.570;2023-03-21T10:08:03;11.40;99.90
21312;DHT22;18076;52.154;10.570;2023-03-21T10:10:36;11.40;99.90
21312;DHT22;18076;52.154;10.570;2023-03-21T10:13:04;11.40;99.90
21312;DHT22;18076;52.154;10.570;2023-03-21T10:15:31;11.50;99.90
21312;DHT22;18076;52.154;10.570;2023-03-21T10:18:01;11.50;99.90
21312;DHT22;18076;52.154;10.570;2023-03-21T10:20:33;11.50;99.90
21312;DHT22;18076;52.154;10.570;2023-03-21T10:23:00;11.60;99.90
21312;DHT22;18076;52.154;10.570;2023-03-21T10:25:34;11.60;99.90
21312;DHT22;18076;52.154;10.570;2023-03-21T10:28:02;11.60;99.90
21312;DHT22;18076;52.154;10.570;2023-03-21T10:33:28;11.70;99.90
21312;DHT22;18076;52.154;10.570;2023-03-21T10:35:54;11.80;99.90
21312;DHT22;18076;52.154;10.570;2023-03-21T10:38:22;11.80;99.90
21312;DHT22;18076;52.154;10.570;2023-03-21T10:40:48;11.90;99.90
21312;DHT22;18076;52.154;10.570;2023-03-21T10:43:18;11.90;99.90
21312;DHT22;18076;52.154;10.570;2023-03-21T10:45:44;12.00;99.90
21312;DHT22;18076;52.154;10.570;2023-03-21T10:48:10;12.10;99.90
21312;DHT22;18076;52.154;10.570;2023-03-21T10:50:36;12.30;99.90
21312;DHT22;18076;52.154;10.570;2023-03-21T10:53:02;12.40;99.90
21312;DHT22;18076;52.154;10.570;2023-03-21T10:55:28;12.50;99.90
21312;DHT22;18076;52.154;10.570;2023-03-21T10:57:56;12.60;99.90
21312;DHT22;18076;52.154;10.570;2023-03-21T11:00:24;12.60;99.90
21312;DHT22;18076;52.154;10.570;2023-03-21T11:02:51;12.80;99.90
21312;DHT22;18076;52.154;10.570;2023-03-21T11:05:19;13.10;99.90
21312;DHT22;18076;52.154;10.570;2023-03-21T11:07:47;13.10;99.90
21312;DHT22;18076;52.154;10.570;2023-03-21T11:10:14;13.10;99.90
21312;DHT22;18076;52.154;10.570;2023-03-21T11:12:40;13.20;99.90
21312;DHT22;18076;52.154;10.570;2023-03-21T11:17:39;13.30;99.90
21312;DHT22;18076;52.154;10.570;2023-03-21T11:20:06;13.30;99.90
21312;DHT22;18076;52.154;10.570;2023-03-21T11:22:39;13.40;99.90
21312;DHT22;18076;52.154;10.570;2023-03-21T11:25:06;13.40;99.90
21312;DHT22;18076;52.154;10.570;2023-03-21T11:27:33;13.50;99.90
21312;DHT22;18076;52.154;10.570;2023-03-21T11:30:00;13.60;99.90
21312;DHT22;18076;52.154;10.570;2023-03-21T11:32:33;13.50;99.90
21312;DHT22;18076;52.154;10.570;2023-03-21T11:35:06;13.40;99.90
21312;DHT22;18076;52.154;10.570;2023-03-21T11:37:39;13.40;99.90
21312;DHT22;18076;52.154;10.570;2023-03-21T11:42:42;13.30;99.90
21312;DHT22;18076;52.154;10.570;2023-03-21T11:47:37;13.30;99.90
21312;DHT22;18076;52.154;10.570;2023-03-21T11:52:51;13.20;99.90
21312;DHT22;18076;52.154;10.570;2023-03-21T12:00:37;13.10;99.90
21312;DHT22;18076;52.154;10.570;2023-03-21T12:05:53;12.90;99.90
21312;DHT22;18076;52.154;10.570;2023-03-21T12:10:53;13.00;99.90
21312;DHT22;18076;52.154;10.570;2023-03-21T12:13:32;13.00;99.90
21312;DHT22;18076;52.154;10.570;2023-03-21T12:24:12;12.90;99.90
21312;DHT22;18076;52.154;10.570;2023-03-21T12:26:45;12.90;99.90
21312;DHT22;18076;52.154;10.570;2023-03-21T12:39:44;12.70;99.90
21312;DHT22;18076;52.154;10.570;2023-03-21T12:45:00;12.80;99.90
21312;DHT22;18076;52.154;10.570;2023-03-21T12:47:26;12.70;99.90
21312;DHT22;18076;52.154;10.570;2023-03-21T12:49:55;12.80;99.90
21312;DHT22;18076;52.154;10.570;2023-03-21T12:52:28;12.80;99.90
21312;DHT22;18076;52.154;10.570;2023-03-21T12:57:25;12.90;99.90
21312;DHT22;18076;52.154;10.570;2023-03-21T13:02:39;12.90;99.90
21312;DHT22;18076;52.154;10.570;2023-03-21T13:07:36;12.90;99.90
21312;DHT22;18076;52.154;10.570;2023-03-21T13:10:11;12.80;99.90
21312;DHT22;18076;52.154;10.570;2023-03-21T13:12:47;12.70;99.90
21312;DHT22;18076;52.154;10.570;2023-03-21T13:18:11;12.70;99.90
21312;DHT22;18076;52.154;10.570;2023-03-21T13:20:46;12.60;99.90
21312;DHT22;18076;52.154;10.570;2023-03-21T13:23:13;12.60;99.90
21312;DHT22;18076;52.154;10.570;2023-03-21T13:25:49;12.50;99.90
21312;DHT22;18076;52.154;10.570;2023-03-21T13:28:26;12.60;99.90
21312;DHT22;18076;52.154;10.570;2023-03-21T13:30:52;12.60;99.90
21312;DHT22;18076;52.154;10.570;2023-03-21T13:33:22;12.60;99.90
21312;DHT22;18076;52.154;10.570;2023-03-21T13:36:00;12.60;99.90
21312;DHT22;18076;52.154;10.570;2023-03-21T13:38:32;12.70;99.90
21312;DHT22;18076;52.154;10.570;2023-03-21T13:40:58;12.60;99.90
21312;DHT22;18076;52.154;10.570;2023-03-21T13:43:39;12.60;99.90
21312;DHT22;18076;52.154;10.570;2023-03-21T13:48:42;12.40;99.90
21312;DHT22;18076;52.154;10.570;2023-03-21T13:51:08;12.40;99.90
21312;DHT22;18076;52.154;10.570;2023-03-21T13:53:40;12.30;99.90
21312;DHT22;18076;52.154;10.570;2023-03-21T13:58:51;12.30;99.90
21312;DHT22;18076;52.154;10.570;2023-03-21T14:01:25;12.30;99.90
21312;DHT22;18076;52.154;10.570;2023-03-21T14:04:11;12.20;99.90
21312;DHT22;18076;52.154;10.570;2023-03-21T14:06:42;12.20;99.90
21312;DHT22;18076;52.154;10.570;2023-03-21T14:09:08;12.10;99.90
21312;DHT22;18076;52.154;10.570;2023-03-21T14:11:35;12.10;99.90
21312;DHT22;18076;52.154;10.570;2023-03-21T14:14:01;12.00;99.90
21312;DHT22;18076;52.154;10.570;2023-03-21T14:16:27;12.00;99.90
21312;DHT22;18076;52.154;10.570;2023-03-21T14:18:55;12.10;99.90
21312;DHT22;18076;52.154;10.570;2023-03-21T14:21:22;12.10;99.90
21312;DHT22;18076;52.154;10.570;2023-03-21T14:23:55;12.00;99.90
21312;DHT22;18076;52.154;10.570;2023-03-21T14:26:21;12.00;99.90
21312;DHT22;18076;52.154;10.570;2023-03-21T14:28:47;12.00;99.90
21312;DHT22;18076;52.154;10.570;2023-03-21T14:31:14;12.00;99.90
21312;DHT22;18076;52.154;10.570;2023-03-21T14:33:48;11.90;99.90
21312;DHT22;18076;52.154;10.570;2023-03-21T14:36:17;11.90;99.90
21312;DHT22;18076;52.154;10.570;2023-03-21T14:38:45;11.90;99.90
21312;DHT22;18076;52.154;10.570;2023-03-21T14:41:20;11.90;99.90
21312;DHT22;18076;52.154;10.570;2023-03-21T14:43:59;12.00;99.90
21312;DHT22;18076;52.154;10.570;2023-03-21T14:46:25;11.90;99.90
21312;DHT22;18076;52.154;10.570;2023-03-21T14:48:51;12.00;99.90
21312;DHT22;18076;52.154;10.570;2023-03-21T14:51:16;11.90;99.90
21312;DHT22;18076;52.154;10.570;2023-03-21T14:53:43;11.80;99.90
21312;DHT22;18076;52.154;10.570;2023-03-21T14:56:11;11.70;99.90
21312;DHT22;18076;52.154;10.570;2023-03-21T14:58:40;11.60;99.90
21312;DHT22;18076;52.154;10.570;2023-03-21T15:01:06;11.60;99.90
21312;DHT22;18076;52.154;10.570;2023-03-21T15:03:38;11.60;99.90
21312;DHT22;18076;52.154;10.570;2023-03-21T15:06:04;11.60;99.90
21312;DHT22;18076;52.154;10.570;2023-03-21T15:08:29;11.50;99.90
21312;DHT22;18076;52.154;10.570;2023-03-21T15:10:56;11.60;99.90
21312;DHT22;18076;52.154;10.570;2023-03-21T15:13:30;11.50;99.90
21312;DHT22;18076;52.154;10.570;2023-03-21T15:15:56;11.40;99.90
21312;DHT22;18076;52.154;10.570;2023-03-21T15:18:32;11.40;99.90
21312;DHT22;18076;52.154;10.570;2023-03-21T15:20:59;11.40;99.90
21312;DHT22;18076;52.154;10.570;2023-03-21T15:23:29;11.40;99.90
21312;DHT22;18076;52.154;10.570;2023-03-21T15:25:55;11.40;99.90
21312;DHT22;18076;52.154;10.570;2023-03-21T15:28:23;11.40;99.90
21312;DHT22;18076;52.154;10.570;2023-03-21T15:30:50;11.30;99.90
21312;DHT22;18076;52.154;10.570;2023-03-21T15:33:16;11.30;99.90
21312;DHT22;18076;52.154;10.570;2023-03-21T15:35:43;11.30;99.90
21312;DHT22;18076;52.154;10.570;2023-03-21T15:41:15;11.30;99.90
21312;DHT22;18076;52.154;10.570;2023-03-21T15:43:41;11.30;99.90
21312;DHT22;18076;52.154;10.570;2023-03-21T15:46:17;11.20;99.90
21312;DHT22;18076;52.154;10.570;2023-03-21T15:51:46;11.20;99.90
21312;DHT22;18076;52.154;10.570;2023-03-21T15:54:20;11.20;99.90
21312;DHT22;18076;52.154;10.570;2023-03-21T15:56:51;11.20;99.90
21312;DHT22;18076;52.154;10.570;2023-03-21T15:59:19;11.20;99.90
21312;DHT22;18076;52.154;10.570;2023-03-21T16:01:48;11.20;99.90
21312;DHT22;18076;52.154;10.570;2023-03-21T16:04:15;11.20;99.90
21312;DHT22;18076;52.154;10.570;2023-03-21T16:06:55;11.20;99.90
21312;DHT22;18076;52.154;10.570;2023-03-21T16:09:21;11.20;99.90
21312;DHT22;18076;52.154;10.570;2023-03-21T16:14:13;11.20;99.90
21312;DHT22;18076;52.154;10.570;2023-03-21T16:16:39;11.20;99.90
21312;DHT22;18076;52.154;10.570;2023-03-21T16:19:04;11.20;99.90
21312;DHT22;18076;52.154;10.570;2023-03-21T16:21:31;11.10;99.90
21312;DHT22;18076;52.154;10.570;2023-03-21T16:23:59;11.20;99.90
21312;DHT22;18076;52.154;10.570;2023-03-21T16:26:40;11.20;99.90
21312;DHT22;18076;52.154;10.570;2023-03-21T16:29:06;11.20;99.90
21312;DHT22;18076;52.154;10.570;2023-03-21T16:31:33;11.20;99.90
21312;DHT22;18076;52.154;10.570;2023-03-21T16:33:59;11.20;99.90
21312;DHT22;18076;52.154;10.570;2023-03-21T16:36:27;11.10;99.90
21312;DHT22;18076;52.154;10.570;2023-03-21T16:38:54;11.10;99.90
21312;DHT22;18076;52.154;10.570;2023-03-21T16:41:23;11.10;99.90
21312;DHT22;18076;52.154;10.570;2023-03-21T16:43:49;11.10;99.90
21312;DHT22;18076;52.154;10.570;2023-03-21T16:46:17;11.10;99.90
21312;DHT22;18076;52.154;10.570;2023-03-21T16:48:43;11.00;99.90
21312;DHT22;18076;52.154;10.570;2023-03-21T16:51:13;11.00;99.90
21312;DHT22;18076;52.154;10.570;2023-03-21T16:53:38;11.00;99.90
21312;DHT22;18076;52.154;10.570;2023-03-21T16:56:04;11.00;99.90
21312;DHT22;18076;52.154;10.570;2023-03-21T16:58:30;11.00;99.90
21312;DHT22;18076;52.154;10.570;2023-03-21T17:00:56;11.10;99.90
21312;DHT22;18076;52.154;10.570;2023-03-21T17:03:21;11.10;99.90
21312;DHT22;18076;52.154;10.570;2023-03-21T17:05:47;11.00;99.90
21312;DHT22;18076;52.154;10.570;2023-03-21T17:08:13;11.00;99.90
21312;DHT22;18076;52.154;10.570;2023-03-21T17:10:39;10.90;99.90
21312;DHT22;18076;52.154;10.570;2023-03-21T17:13:05;10.90;99.90